Time;durP1;ratioP1;P1;durP2;ratioP2;P2;SDS_P1;SDS_P2;PMS_P1;PMS_P2;Temp;Humidity;BMP_temperature;BMP_pressure;BME280_temperature;BME280_humidity;BME280_pressure;Samples;Min_cycle;Max_cycle;Signal;HPM_P1;HPM_P2
2024/01/01 00:01:43;;;;;;;64.70;40.17;;;;;;;5.12;100.00;99802.00;4942505;29;20178;-40
2024/01/01 00:04:09;;;;;;;52.78;32.90;;;;;;;5.14;100.00;99796.66;4943126;29;20249;-41
2024/01/01 00:06:35;;;;;;;53.15;30.77;;;;;;;5.13;100.00;99795.75;4942557;29;20203;-41
2024/01/01 00:09:01;;;;;;;50.75;30.45;;;;;;;5.17;100.00;99796.53;4943299;29;20221;-42
2024/01/01 00:11:26;;;;;;;46.67;28.05;;;;;;;5.14;100.00;99800.16;4943783;29;20187;-43
2024/01/01 00:13:52;;;;;;;46.22;29.90;;;;;;;5.14;100.00;99794.00;4944099;29;20589;-43
2024/01/01 00:16:17;;;;;;;42.95;26.70;;;;;;;5.13;100.00;99785.13;4940098;29;20270;-42
2024/01/01 00:18:43;;;;;;;38.92;25.55;;;;;;;5.16;100.00;99784.19;4943513;29;20204;-40
2024/01/01 00:21:09;;;;;;;43.97;25.88;;;;;;;5.15;100.00;99777.13;4948486;29;20559;-42
2024/01/01 00:23:35;;;;;;;36.03;24.13;;;;;;;5.15;100.00;99779.78;4941498;29;20226;-42
2024/01/01 00:26:01;;;;;;;38.53;23.63;;;;;;;5.17;100.00;99783.25;4947164;29;20188;-41
2024/01/01 00:28:26;;;;;;;34.67;23.00;;;;;;;5.17;100.00;99775.28;4932489;29;20234;-42
2024/01/01 00:30:52;;;;;;;46.63;25.05;;;;;;;5.17;100.00;99775.28;4940677;29;20279;-41
2024/01/01 00:33:17;;;;;;;35.70;24.20;;;;;;;5.20;100.00;99777.84;4927146;29;20234;-41
2024/01/01 00:35:44;;;;;;;40.63;23.55;;;;;;;5.23;100.00;99775.09;4943800;29;20215;-40
2024/01/01 00:38:10;;;;;;;31.45;20.42;;;;;;;5.23;100.00;99775.09;4945471;29;20213;-43
2024/01/01 00:40:37;;;;;;;33.33;21.17;;;;;;;5.20;100.00;99772.53;4940956;29;20195;-41
2024/01/01 00:43:02;;;;;;;32.47;18.98;;;;;;;5.23;100.00;99768.94;4942057;29;20563;-42
2024/01/01 00:45:28;;;;;;;32.35;18.90;;;;;;;5.21;100.00;99776.94;4940488;29;20206;-41
2024/01/01 00:47:53;;;;;;;26.15;16.73;;;;;;;5.18;100.00;99755.78;4939526;29;20630;-40
2024/01/01 00:50:19;;;;;;;24.00;16.20;;;;;;;5.21;100.00;99763.66;4944012;28;20179;-41
2024/01/01 00:52:44;;;;;;;24.55;16.17;;;;;;;5.20;100.00;99761.03;4925434;29;20257;-42
2024/01/01 00:55:10;;;;;;;28.95;15.75;;;;;;;5.22;100.00;99768.03;4945616;29;20195;-42
2024/01/01 00:57:35;;;;;;;27.08;15.65;;;;;;;5.19;100.00;99764.63;4925548;29;20209;-42
2024/01/01 01:00:01;;;;;;;31.67;16.67;;;;;;;5.16;100.00;99753.19;4928592;29;20624;-42
2024/01/01 01:02:26;;;;;;;25.27;16.08;;;;;;;5.16;100.00;99758.50;4941530;28;20191;-41
2024/01/01 01:04:52;;;;;;;28.95;17.33;;;;;;;5.14;100.00;99757.69;4939053;29;20183;-42
2024/01/01 01:07:18;;;;;;;30.10;17.38;;;;;;;5.12;100.00;99756.00;4941463;29;20654;-41
2024/01/01 01:09:44;;;;;;;29.13;16.52;;;;;;;5.11;100.00;99757.75;4944407;29;20179;-41
2024/01/01 01:12:09;;;;;;;28.67;17.92;;;;;;;5.10;100.00;99760.50;4942646;29;20205;-41
2024/01/01 01:14:34;;;;;;;28.52;17.42;;;;;;;5.09;100.00;99754.28;4939955;29;20330;-41
2024/01/01 01:17:00;;;;;;;29.67;17.17;;;;;;;5.08;100.00;99757.88;4941748;29;20242;-43
2024/01/01 01:19:26;;;;;;;33.38;17.40;;;;;;;5.05;100.00;99754.44;4940896;29;20179;-42
2024/01/01 01:21:51;;;;;;;35.80;19.23;;;;;;;5.06;100.00;99762.38;4938990;29;20178;-42
2024/01/01 01:24:18;;;;;;;29.95;18.30;;;;;;;5.02;100.00;99757.22;4938077;29;20349;-42
2024/01/01 01:26:43;;;;;;;28.45;18.58;;;;;;;4.98;100.00;99767.06;4939998;29;20627;-41
2024/01/01 01:29:12;;;;;;;35.15;18.85;;;;;;;5.00;100.00;99756.41;4935272;29;20234;-41
2024/01/01 01:31:37;;;;;;;28.92;18.38;;;;;;;5.05;100.00;99757.09;4922512;29;20214;-41
2024/01/01 01:34:03;;;;;;;29.38;19.65;;;;;;;5.00;100.00;99762.56;4941650;29;20306;-41
2024/01/01 01:36:28;;;;;;;34.63;21.00;;;;;;;5.01;100.00;99756.34;4928272;29;20194;-41
2024/01/01 01:38:54;;;;;;;32.72;19.35;;;;;;;4.99;100.00;99757.31;4945824;29;20320;-42
2024/01/01 01:41:20;;;;;;;35.72;21.17;;;;;;;5.00;100.00;99754.59;4942087;29;20690;-41
2024/01/01 01:43:46;;;;;;;39.63;21.38;;;;;;;4.97;100.00;99753.84;4939021;29;20215;-41
2024/01/01 01:46:14;;;;;;;39.63;20.95;;;;;;;4.94;100.00;99760.09;4942370;29;20199;-40
2024/01/01 01:48:40;;;;;;;34.35;21.30;;;;;;;4.86;100.00;99755.06;4926511;29;20183;-42
2024/01/01 01:51:06;;;;;;;38.75;22.35;;;;;;;4.82;100.00;99756.06;4943434;29;20185;-42
2024/01/01 01:53:32;;;;;;;31.20;20.80;;;;;;;4.83;100.00;99756.94;4939233;29;20278;-41
2024/01/01 01:56:02;;;;;;;30.33;19.10;;;;;;;4.87;100.00;99754.13;4941095;29;20189;-42
2024/01/01 01:58:29;;;;;;;30.58;19.75;;;;;;;4.86;100.00;99763.03;4926420;29;20290;-41
2024/01/01 02:00:55;;;;;;;35.42;19.98;;;;;;;4.89;100.00;99762.06;4928968;29;20193;-40
2024/01/01 02:03:21;;;;;;;34.65;20.42;;;;;;;4.90;100.00;99754.03;4922988;29;20203;-43
2024/01/01 02:05:46;;;;;;;27.60;19.00;;;;;;;4.92;100.00;99761.97;4937913;29;20186;-41
2024/01/01 02:08:13;;;;;;;34.05;19.67;;;;;;;4.93;100.00;99761.91;4924896;29;20221;-42
2024/01/01 02:10:39;;;;;;;31.67;18.75;;;;;;;4.97;100.00;99760.03;4940933;29;20186;-42
2024/01/01 02:13:05;;;;;;;31.63;19.38;;;;;;;4.90;100.00;99762.00;4921045;29;20760;-40
2024/01/01 02:15:30;;;;;;;35.85;18.27;;;;;;;4.94;100.00;99762.75;4925127;29;20549;-42
2024/01/01 02:17:57;;;;;;;34.25;19.05;;;;;;;4.98;100.00;99748.47;4941787;29;20199;-43
2024/01/01 02:20:23;;;;;;;36.10;18.38;;;;;;;4.98;100.00;99756.44;4937098;29;20182;-43
2024/01/01 02:22:52;;;;;;;28.65;16.88;;;;;;;4.95;100.00;99749.44;4943357;29;20560;-40
2024/01/01 02:25:17;;;;;;;27.85;16.77;;;;;;;5.01;100.00;99760.78;4924128;29;20534;-42
2024/01/01 02:27:43;;;;;;;33.35;16.33;;;;;;;5.05;100.00;99758.00;4940538;29;20660;-45
2024/01/01 02:30:10;;;;;;;22.92;16.23;;;;;;;5.03;100.00;99759.84;4941449;29;20178;-42
2024/01/01 02:32:39;;;;;;;24.67;16.30;;;;;;;5.05;100.00;99762.41;4940216;29;20174;-41
2024/01/01 02:35:07;;;;;;;27.50;15.57;;;;;;;5.03;100.00;99756.28;4943129;29;20218;-42
2024/01/01 02:37:36;;;;;;;25.35;13.85;;;;;;;5.08;100.00;99757.03;4943415;29;20258;-42
2024/01/01 02:40:02;;;;;;;20.27;13.82;;;;;;;5.11;100.00;99751.59;4941566;29;20230;-42
2024/01/01 02:42:29;;;;;;;25.35;13.23;;;;;;;5.14;100.00;99747.06;4924760;29;20215;-43
2024/01/01 02:44:55;;;;;;;25.70;13.75;;;;;;;5.14;100.00;99755.03;4927632;29;20183;-41
2024/01/01 02:47:20;;;;;;;21.08;12.77;;;;;;;5.16;100.00;99752.34;4939420;29;20721;-42
2024/01/01 02:49:46;;;;;;;20.98;13.35;;;;;;;5.12;100.00;99742.72;4940087;29;20261;-44
2024/01/01 02:52:11;;;;;;;24.08;13.95;;;;;;;5.11;100.00;99747.16;4939827;29;20181;-42
2024/01/01 02:54:37;;;;;;;24.42;13.02;;;;;;;5.16;100.00;99739.91;4943169;29;20274;-43
2024/01/01 02:57:02;;;;;;;20.65;11.65;;;;;;;5.18;100.00;99752.25;4927553;29;20210;-41
2024/01/01 02:59:28;;;;;;;25.70;12.35;;;;;;;5.12;100.00;99738.28;4922875;29;20186;-43
2024/01/01 03:01:53;;;;;;;22.10;13.43;;;;;;;5.10;100.00;99747.22;4940311;29;20189;-42
2024/01/01 03:04:19;;;;;;;20.50;12.43;;;;;;;5.09;100.00;99748.13;4940130;29;20238;-42
2024/01/01 03:06:44;;;;;;;20.15;12.43;;;;;;;5.08;100.00;99746.41;4942324;29;20207;-42
2024/01/01 03:09:10;;;;;;;24.73;12.35;;;;;;;5.09;100.00;99753.44;4924447;29;20253;-42
2024/01/01 03:11:35;;;;;;;20.70;11.48;;;;;;;5.12;100.00;99750.69;4941332;29;20557;-42
2024/01/01 03:14:01;;;;;;;23.50;12.07;;;;;;;5.07;100.00;99761.47;4942362;29;20660;-41
2024/01/01 03:16:26;;;;;;;19.25;12.25;;;;;;;5.03;100.00;99743.00;4926598;29;20198;-42
2024/01/01 03:18:52;;;;;;;22.58;11.70;;;;;;;4.97;100.00;99746.75;4947039;29;20202;-41
2024/01/01 03:21:17;;;;;;;25.05;11.75;;;;;;;5.01;100.00;99750.16;4946583;29;20195;-42
2024/01/01 03:23:43;;;;;;;24.58;11.50;;;;;;;4.99;100.00;99746.72;4943985;29;20214;-41
2024/01/01 03:26:09;;;;;;;14.82;10.98;;;;;;;4.97;100.00;99743.25;4934212;29;20649;-43
2024/01/01 03:28:34;;;;;;;27.17;12.25;;;;;;;4.97;100.00;99743.25;4929784;29;20193;-43
2024/01/01 03:31:00;;;;;;;20.40;11.45;;;;;;;4.97;100.00;99741.44;4945368;29;20194;-43
2024/01/01 03:33:33;;;;;;;19.77;11.15;;;;;;;4.95;100.00;99746.78;4945114;29;20207;-42
2024/01/01 03:35:59;;;;;;;20.00;11.85;;;;;;;4.98;100.00;99742.31;4945925;29;20677;-42
2024/01/01 03:38:24;;;;;;;23.05;11.88;;;;;;;4.97;100.00;99737.94;4946716;29;20237;-41
2024/01/01 03:40:50;;;;;;;20.00;12.15;;;;;;;4.95;100.00;99740.63;4939498;29;20219;-40
2024/01/01 03:43:16;;;;;;;19.05;11.43;;;;;;;4.96;100.00;99737.03;4943431;29;20265;-41
2024/01/01 03:45:44;;;;;;;23.92;11.20;;;;;;;4.99;100.00;99738.75;4946667;29;20182;-42
2024/01/01 03:48:10;;;;;;;20.08;11.15;;;;;;;4.98;100.00;99735.19;4936256;29;20234;-43
2024/01/01 03:50:35;;;;;;;19.02;11.23;;;;;;;4.99;100.00;99731.66;4942447;29;20195;-43
2024/01/01 03:53:01;;;;;;;21.85;10.77;;;;;;;5.01;100.00;99729.81;4943384;29;20298;-41
2024/01/01 03:55:26;;;;;;;19.85;10.95;;;;;;;4.99;100.00;99728.13;4945846;29;20230;-41
2024/01/01 03:57:52;;;;;;;22.67;11.68;;;;;;;4.98;100.00;99742.31;4944847;29;20258;-44
2024/01/01 04:00:18;;;;;;;18.80;9.75;;;;;;;4.98;100.00;99737.84;4938251;29;20494;-41
2024/01/01 04:02:46;;;;;;;18.70;10.65;;;;;;;5.01;100.00;99734.22;4945283;29;20203;-43
2024/01/01 04:05:12;;;;;;;19.90;10.95;;;;;;;5.02;100.00;99739.50;4925094;29;20198;-42
2024/01/01 04:07:38;;;;;;;20.13;10.85;;;;;;;5.00;100.00;99732.50;4924644;29;20210;-42
2024/01/01 04:10:05;;;;;;;22.15;10.65;;;;;;;4.99;100.00;99723.69;4929606;29;20214;-42
2024/01/01 04:12:31;;;;;;;20.10;10.23;;;;;;;4.96;100.00;99734.38;4943679;29;20202;-43
2024/01/01 04:14:56;;;;;;;18.30;10.77;;;;;;;4.98;100.00;99731.69;4927454;29;20191;-43
2024/01/01 04:17:22;;;;;;;16.40;10.27;;;;;;;4.98;100.00;99729.03;4944647;29;20202;-41
2024/01/01 04:19:47;;;;;;;17.55;10.00;;;;;;;5.00;100.00;99728.06;4939980;29;20223;-42
2024/01/01 04:22:18;;;;;;;16.15;10.60;;;;;;;5.01;100.00;99731.56;4939652;29;20187;-41
2024/01/01 04:24:43;;;;;;;19.17;9.80;;;;;;;4.99;100.00;99722.81;4940371;29;20568;-40
2024/01/01 04:27:09;;;;;;;17.10;10.18;;;;;;;5.05;100.00;99720.84;4943946;29;20273;-41
2024/01/01 04:29:35;;;;;;;15.63;9.23;;;;;;;5.05;100.00;99728.78;4945214;29;20558;-42
2024/01/01 04:32:00;;;;;;;15.95;10.13;;;;;;;5.09;100.00;99716.25;4944728;29;20187;-41
2024/01/01 04:34:26;;;;;;;20.20;8.88;;;;;;;5.11;100.00;99709.97;4941283;29;20295;-41
2024/01/01 04:36:51;;;;;;;18.13;9.07;;;;;;;5.11;100.00;99720.59;4945793;29;20636;-41
2024/01/01 04:39:17;;;;;;;18.05;8.70;;;;;;;5.11;100.00;99723.25;4945323;29;20474;-41
2024/01/01 04:41:42;;;;;;;18.33;8.82;;;;;;;5.11;100.00;99717.09;4944684;29;20187;-42
2024/01/01 04:44:08;;;;;;;14.48;8.05;;;;;;;5.14;100.00;99727.63;4945732;29;20214;-40
2024/01/01 04:46:33;;;;;;;16.60;8.93;;;;;;;5.12;100.00;99729.44;4942532;29;20195;-43
2024/01/01 04:48:59;;;;;;;16.65;8.20;;;;;;;5.15;100.00;99722.22;4944451;29;20304;-42
2024/01/01 04:51:24;;;;;;;18.17;9.20;;;;;;;5.14;100.00;99724.97;4941843;29;20241;-42
2024/01/01 04:53:51;;;;;;;11.63;7.05;;;;;;;5.16;100.00;99729.28;4941975;29;20221;-42
2024/01/01 04:56:17;;;;;;;11.85;6.97;;;;;;;5.18;100.00;99715.09;4943475;29;20384;-42
2024/01/01 04:58:43;;;;;;;12.68;7.50;;;;;;;5.19;100.00;99714.19;4943902;29;20673;-42
2024/01/01 05:01:08;;;;;;;16.75;7.93;;;;;;;5.15;100.00;99722.22;4945085;29;20347;-42
2024/01/01 05:03:34;;;;;;;13.32;8.00;;;;;;;5.15;100.00;99729.34;4943352;29;20767;-41
2024/01/01 05:05:59;;;;;;;15.20;7.28;;;;;;;5.16;100.00;99720.47;4941981;29;20205;-41
2024/01/01 05:08:25;;;;;;;17.13;7.45;;;;;;;5.17;100.00;99714.22;4946116;29;20678;-42
2024/01/01 05:10:50;;;;;;;10.65;6.95;;;;;;;5.14;100.00;99719.66;4943418;29;20195;-40
2024/01/01 05:13:16;;;;;;;11.57;7.30;;;;;;;5.18;100.00;99725.69;4979338;23;20258;-41
2024/01/01 05:15:43;;;;;;;15.15;7.80;;;;;;;5.22;100.00;99722.88;4951670;28;20190;-40
2024/01/01 05:18:09;;;;;;;12.27;7.28;;;;;;;5.23;100.00;99716.69;4948833;28;20203;-42
2024/01/01 05:20:34;;;;;;;11.27;7.30;;;;;;;5.30;100.00;99715.53;4947361;28;20623;-41
2024/01/01 05:23:00;;;;;;;12.18;6.97;;;;;;;5.35;100.00;99712.72;4948158;28;20237;-40
2024/01/01 05:25:25;;;;;;;13.50;7.07;;;;;;;5.35;100.00;99707.41;4948287;28;20258;-40
2024/01/01 05:27:51;;;;;;;10.00;6.55;;;;;;;5.35;100.00;99715.38;4953008;28;20177;-40
2024/01/01 05:30:17;;;;;;;14.70;6.70;;;;;;;5.37;100.00;99701.13;4931542;28;20191;-39
2024/01/01 05:32:42;;;;;;;11.85;7.20;;;;;;;5.40;100.00;99708.13;4947039;28;20202;-39
2024/01/01 05:35:08;;;;;;;11.82;6.95;;;;;;;5.37;100.00;99706.44;4945460;28;20190;-40
2024/01/01 05:37:33;;;;;;;14.18;7.28;;;;;;;5.43;100.00;99715.97;4946560;28;20206;-41
2024/01/01 05:39:59;;;;;;;13.65;6.72;;;;;;;5.39;100.00;99705.53;4946661;28;20633;-45
2024/01/01 05:42:24;;;;;;;14.93;7.43;;;;;;;5.44;100.00;99706.22;4944814;28;20211;-41
2024/01/01 05:44:50;;;;;;;12.00;7.22;;;;;;;5.47;100.00;99698.16;4951531;28;20167;-43
2024/01/01 05:47:15;;;;;;;11.90;6.90;;;;;;;5.45;100.00;99703.50;4940293;28;20556;-41
2024/01/01 05:49:41;;;;;;;12.77;7.80;;;;;;;5.48;100.00;99711.38;4944569;28;20254;-40
2024/01/01 05:52:06;;;;;;;13.93;8.02;;;;;;;5.47;100.00;99711.44;4933634;28;20217;-43
2024/01/01 05:54:32;;;;;;;13.80;7.30;;;;;;;5.47;100.00;99717.63;4946884;28;20269;-41
2024/01/01 05:56:57;;;;;;;10.90;7.78;;;;;;;5.45;100.00;99708.81;4948984;28;20191;-43
2024/01/01 05:59:22;;;;;;;13.20;7.72;;;;;;;5.45;100.00;99707.97;4935533;28;20187;-39
2024/01/01 06:01:48;;;;;;;14.68;7.57;;;;;;;5.45;100.00;99705.31;4934581;28;20225;-39
2024/01/01 06:04:13;;;;;;;14.00;7.90;;;;;;;5.54;100.00;99713.81;4950457;28;20223;-42
2024/01/01 06:06:39;;;;;;;15.13;8.07;;;;;;;5.50;100.00;99709.53;4948837;28;20171;-44
2024/01/01 06:09:04;;;;;;;17.05;8.40;;;;;;;5.52;100.00;99710.34;4934289;28;20193;-40
2024/01/01 06:11:30;;;;;;;17.83;8.45;;;;;;;5.47;100.00;99706.13;4947297;28;20646;-42
2024/01/01 06:13:56;;;;;;;19.75;9.40;;;;;;;5.48;100.00;99699.88;4950547;28;20707;-42
2024/01/01 06:16:25;;;;;;;16.67;9.07;;;;;;;5.46;100.00;99709.69;4945367;28;20296;-41
2024/01/01 06:18:50;;;;;;;21.20;9.05;;;;;;;5.44;100.00;99707.06;4949618;28;20235;-41
2024/01/01 06:21:16;;;;;;;19.52;9.32;;;;;;;5.40;100.00;99701.94;4944028;28;20258;-40
2024/01/01 06:23:45;;;;;;;17.48;9.25;;;;;;;5.35;100.00;99702.94;4944126;28;20229;-43
2024/01/01 06:26:11;;;;;;;16.85;8.68;;;;;;;5.32;100.00;99707.53;4944480;28;20562;-40
2024/01/01 06:28:36;;;;;;;20.55;9.15;;;;;;;5.31;100.00;99705.78;4933362;28;20187;-43
2024/01/01 06:31:02;;;;;;;13.48;9.15;;;;;;;5.29;100.00;99705.84;4946200;28;20178;-44
2024/01/01 06:33:29;;;;;;;19.45;9.70;;;;;;;5.32;100.00;99710.19;4947693;28;20215;-41
2024/01/01 06:35:55;;;;;;;14.93;9.18;;;;;;;5.25;100.00;99711.31;4943007;28;20187;-42
2024/01/01 06:38:21;;;;;;;19.17;9.48;;;;;;;5.27;100.00;99714.75;4948110;28;20206;-42
2024/01/01 06:40:46;;;;;;;17.38;9.63;;;;;;;5.27;100.00;99704.13;4947233;28;20312;-42
2024/01/01 06:43:12;;;;;;;21.88;10.40;;;;;;;5.27;100.00;99715.66;4950951;28;20466;-43
2024/01/01 06:45:38;;;;;;;16.05;10.00;;;;;;;5.26;100.00;99713.91;4946485;28;20185;-41
2024/01/01 06:48:03;;;;;;;19.30;9.82;;;;;;;5.24;100.00;99715.75;4944376;28;20195;-42
2024/01/01 06:50:30;;;;;;;20.50;10.40;;;;;;;5.25;100.00;99712.19;4949547;28;20274;-45
2024/01/01 06:52:55;;;;;;;20.42;10.20;;;;;;;5.25;100.00;99725.47;4936721;28;20718;-44
2024/01/01 06:55:22;;;;;;;17.42;10.13;;;;;;;5.26;100.00;99719.22;4945799;28;20187;-42
2024/01/01 06:57:48;;;;;;;17.63;10.80;;;;;;;5.26;100.00;99716.56;4930092;28;20215;-43
2024/01/01 07:00:15;;;;;;;16.58;9.45;;;;;;;5.24;100.00;99726.38;4947830;28;20182;-43
2024/01/01 07:02:41;;;;;;;18.52;10.32;;;;;;;5.24;100.00;99717.53;4950940;28;20668;-42
2024/01/01 07:05:07;;;;;;;16.00;10.23;;;;;;;5.27;100.00;99728.03;4946982;28;20191;-42
2024/01/01 07:07:33;;;;;;;17.88;9.77;;;;;;;5.29;100.00;99728.84;4946600;28;20267;-43
2024/01/01 07:09:59;;;;;;;22.80;10.70;;;;;;;5.29;100.00;99735.06;4950330;28;20190;-42
2024/01/01 07:12:27;;;;;;;22.48;9.95;;;;;;;5.30;100.00;99734.13;4945321;28;20202;-42
2024/01/01 07:14:53;;;;;;;20.58;10.13;;;;;;;5.33;100.00;99741.97;4951740;28;20731;-43
2024/01/01 07:17:19;;;;;;;18.73;9.85;;;;;;;5.32;100.00;99744.72;4945668;28;20238;-43
2024/01/01 07:19:45;;;;;;;15.40;9.43;;;;;;;5.32;100.00;99732.28;4945647;28;20615;-43
2024/01/01 07:22:11;;;;;;;18.02;10.18;;;;;;;5.36;100.00;99739.22;4953340;28;20214;-42
2024/01/01 07:24:37;;;;;;;17.48;10.10;;;;;;;5.39;100.00;99729.44;4946522;28;20209;-43
2024/01/01 07:27:03;;;;;;;21.60;10.00;;;;;;;5.37;100.00;99738.31;4932630;28;20187;-43
2024/01/01 07:29:30;;;;;;;17.02;9.57;;;;;;;5.34;100.00;99740.22;4947949;28;20287;-43
2024/01/01 07:31:55;;;;;;;17.08;9.85;;;;;;;5.37;100.00;99743.63;4944615;28;20211;-43
2024/01/01 07:34:21;;;;;;;15.30;9.02;;;;;;;5.39;100.00;99756.84;4945674;28;20234;-44
2024/01/01 07:36:47;;;;;;;17.80;9.20;;;;;;;5.40;100.00;99755.06;4932961;28;20182;-43
2024/01/01 07:39:13;;;;;;;14.60;8.60;;;;;;;5.36;100.00;99746.34;4946226;28;20254;-44
2024/01/01 07:41:39;;;;;;;13.77;8.25;;;;;;;5.31;100.00;99748.25;4948308;28;20184;-42
2024/01/01 07:44:07;;;;;;;16.02;9.00;;;;;;;5.27;100.00;99754.59;4947520;28;20218;-44
2024/01/01 07:46:32;;;;;;;18.23;9.23;;;;;;;5.31;100.00;99756.22;4946934;28;20602;-43
2024/01/01 07:49:00;;;;;;;15.63;8.68;;;;;;;5.27;100.00;99755.50;4942928;28;20661;-43
2024/01/01 07:51:25;;;;;;;14.43;8.32;;;;;;;5.25;100.00;99757.31;4930590;28;20179;-44
2024/01/01 07:53:51;;;;;;;12.30;7.55;;;;;;;5.20;100.00;99761.91;4951360;28;20206;-42
2024/01/01 07:56:16;;;;;;;14.32;8.43;;;;;;;5.16;100.00;99753.19;4942199;28;20240;-43
2024/01/01 07:58:42;;;;;;;13.73;8.82;;;;;;;5.17;100.00;99754.06;4947431;28;20313;-43
2024/01/01 08:01:07;;;;;;;16.25;8.18;;;;;;;5.15;100.00;99756.75;4947219;28;20265;-44
2024/01/01 08:03:33;;;;;;;17.08;8.75;;;;;;;5.19;100.00;99762.84;4948770;28;20300;-42
2024/01/01 08:05:58;;;;;;;12.80;7.43;;;;;;;5.22;100.00;99764.50;4948343;28;20197;-44
2024/01/01 08:08:24;;;;;;;14.70;7.82;;;;;;;5.21;100.00;99763.66;4944008;28;20214;-41
2024/01/01 08:10:50;;;;;;;15.55;8.27;;;;;;;5.28;100.00;99762.53;4946565;28;20201;-42
2024/01/01 08:13:15;;;;;;;15.23;7.82;;;;;;;5.28;100.00;99759.88;4935580;29;20214;-43
2024/01/01 08:15:41;;;;;;;17.80;8.25;;;;;;;5.31;100.00;99761.53;4944683;28;20188;-44
2024/01/01 08:18:06;;;;;;;16.98;8.70;;;;;;;5.33;100.00;99773.84;4948650;28;20330;-43
2024/01/01 08:20:32;;;;;;;12.05;7.25;;;;;;;5.36;100.00;99767.59;4947211;28;20175;-42
2024/01/01 08:22:57;;;;;;;17.58;8.45;;;;;;;5.41;100.00;99762.13;4948711;28;20289;-40
2024/01/01 08:25:23;;;;;;;13.15;7.68;;;;;;;5.44;100.00;99762.00;4924387;29;20229;-42
2024/01/01 08:27:49;;;;;;;16.13;7.28;;;;;;;5.44;100.00;99765.50;4937937;28;20174;-41
2024/01/01 08:30:14;;;;;;;14.95;7.03;;;;;;;5.45;100.00;99769.06;4940250;28;20183;-41
2024/01/01 08:32:40;;;;;;;11.40;7.20;;;;;;;5.46;100.00;99762.81;4926493;28;20190;-41
2024/01/01 08:35:06;;;;;;;14.57;7.45;;;;;;;5.50;100.00;99765.31;4941635;28;20229;-41
2024/01/01 08:37:32;;;;;;;9.75;6.80;;;;;;;5.50;100.00;99759.13;4940095;28;20203;-43
2024/01/01 08:39:58;;;;;;;13.73;7.65;;;;;;;5.49;100.00;99768.91;4920003;29;20250;-44
2024/01/01 08:42:23;;;;;;;11.88;7.13;;;;;;;5.52;100.00;99757.31;4940954;28;20219;-42
2024/01/01 08:44:49;;;;;;;12.43;6.40;;;;;;;5.56;100.00;99769.56;4944444;28;20242;-41
2024/01/01 08:47:15;;;;;;;13.27;6.15;;;;;;;5.58;100.00;99762.41;4939523;28;20262;-40
2024/01/01 08:49:41;;;;;;;11.73;5.90;;;;;;;5.58;100.00;99759.75;4940839;28;20282;-42
2024/01/01 08:52:07;;;;;;;11.40;7.30;;;;;;;5.62;100.00;99766.69;4946520;28;20178;-41
2024/01/01 08:54:32;;;;;;;12.95;7.07;;;;;;;5.64;100.00;99775.47;4924172;28;20262;-42
2024/01/01 08:56:58;;;;;;;14.95;6.88;;;;;;;5.67;100.00;99770.03;4942410;28;20199;-43
2024/01/01 08:59:24;;;;;;;13.40;7.30;;;;;;;5.68;100.00;99769.09;4928760;29;21186;-43
2024/01/01 09:01:49;;;;;;;14.65;6.30;;;;;;;5.68;100.00;99779.75;4943168;28;20261;-43
2024/01/01 09:04:15;;;;;;;10.32;6.40;;;;;;;5.70;100.00;99782.34;4940789;28;20218;-44
2024/01/01 09:06:40;;;;;;;14.73;7.50;;;;;;;5.69;100.00;99776.19;4938230;28;20187;-43
2024/01/01 09:09:08;;;;;;;9.77;5.90;;;;;;;5.68;100.00;99778.88;4938723;28;20194;-42
2024/01/01 09:11:33;;;;;;;11.30;6.15;;;;;;;5.70;100.00;99772.59;4928060;28;20207;-44
2024/01/01 09:14:00;;;;;;;11.38;5.70;;;;;;;5.71;100.00;99781.44;4942973;28;20214;-45
2024/01/01 09:16:29;;;;;;;13.65;6.20;;;;;;;5.74;100.00;99774.22;4936912;28;20199;-43
2024/01/01 09:18:56;;;;;;;11.18;6.10;;;;;;;5.73;100.00;99772.50;4937652;28;20626;-43
2024/01/01 09:21:24;;;;;;;10.73;5.78;;;;;;;5.74;100.00;99776.00;4943088;28;20693;-45
2024/01/01 09:23:50;;;;;;;9.15;5.13;;;;;;;5.80;100.00;99782.91;4944245;28;20198;-42
2024/01/01 09:26:15;;;;;;;9.90;5.78;;;;;;;5.81;100.00;99777.53;4942836;28;20187;-45
2024/01/01 09:28:40;;;;;;;9.55;5.15;;;;;;;5.82;100.00;99786.38;4940883;28;20178;-44
2024/01/01 09:31:06;;;;;;;10.15;5.35;;;;;;;5.81;100.00;99785.50;4925240;28;20191;-44
2024/01/01 09:33:32;;;;;;;13.07;5.70;;;;;;;5.82;100.00;99794.38;4940814;28;20207;-44
2024/01/01 09:35:57;;;;;;;9.45;5.07;;;;;;;5.83;100.00;99791.63;4931834;29;20265;-45
2024/01/01 09:38:23;;;;;;;9.55;5.05;;;;;;;5.86;100.00;99788.88;4940898;28;20258;-44
2024/01/01 09:40:48;;;;;;;8.77;5.03;;;;;;;5.91;100.00;99792.22;4940184;28;20241;-46
2024/01/01 09:43:15;;;;;;;10.85;4.93;;;;;;;5.89;100.00;99791.41;4931272;29;20202;-46
2024/01/01 09:45:42;;;;;;;11.57;5.47;;;;;;;5.91;100.00;99794.88;4938412;28;20194;-44
2024/01/01 09:48:08;;;;;;;10.00;4.97;;;;;;;5.92;100.00;99799.25;4937515;28;20604;-46
2024/01/01 09:50:34;;;;;;;9.90;4.55;;;;;;;5.91;100.00;99796.69;4938162;28;20186;-44
2024/01/01 09:53:00;;;;;;;9.52;5.03;;;;;;;5.91;100.00;99794.03;4944869;28;20207;-46
2024/01/01 09:55:25;;;;;;;9.55;4.47;;;;;;;5.94;100.00;99808.09;4930539;29;20206;-47
2024/01/01 09:57:51;;;;;;;10.40;4.10;;;;;;;5.94;100.00;99810.75;4941796;28;20202;-45
2024/01/01 10:00:23;;;;;;;10.45;4.32;;;;;;;5.95;100.00;99811.63;4939203;28;20197;-46
2024/01/01 10:02:49;;;;;;;11.45;4.70;;;;;;;5.93;100.00;99810.78;4941603;28;20211;-46
2024/01/01 10:05:16;;;;;;;7.90;4.38;;;;;;;5.94;100.00;99808.09;4932292;28;20191;-45
2024/01/01 10:07:42;;;;;;;10.82;5.10;;;;;;;5.92;100.00;99809.03;4937915;28;20195;-46
2024/01/01 10:10:08;;;;;;;8.18;4.20;;;;;;;5.93;100.00;99819.63;4943752;28;20190;-45
2024/01/01 10:12:33;;;;;;;6.18;3.65;;;;;;;5.91;100.00;99815.28;4936107;28;20194;-44
2024/01/01 10:14:59;;;;;;;8.82;4.10;;;;;;;5.88;100.00;99810.06;4932366;28;20190;-47
2024/01/01 10:17:25;;;;;;;7.07;4.05;;;;;;;5.85;100.00;99813.72;4932522;28;20229;-46
2024/01/01 10:19:52;;;;;;;7.55;4.13;;;;;;;5.86;100.00;99819.88;4935116;28;20195;-46
2024/01/01 10:22:23;;;;;;;8.70;3.95;;;;;;;5.83;100.00;99822.66;4918796;28;20670;-44
2024/01/01 10:24:52;;;;;;;9.38;3.70;;;;;;;5.81;100.00;99829.81;4939462;28;20215;-45
2024/01/01 10:27:19;;;;;;;7.38;3.35;;;;;;;5.84;100.00;99827.03;4929667;29;20269;-46
2024/01/01 10:29:49;;;;;;;8.77;3.63;;;;;;;5.83;100.00;99830.63;4943480;28;20190;-45
2024/01/01 10:32:19;;;;;;;9.90;3.70;;;;;;;5.81;100.00;99838.66;4937169;28;20210;-46
2024/01/01 10:34:46;;;;;;;6.40;3.78;;;;;;;5.80;100.00;99836.94;4937574;28;20210;-46
2024/01/01 10:37:13;;;;;;;7.00;3.55;;;;;;;5.83;100.00;99830.63;4930100;29;20195;-44
2024/01/01 10:39:41;;;;;;;8.50;3.40;;;;;;;5.83;100.00;99830.63;4917768;28;20708;-46
2024/01/01 10:42:06;;;;;;;7.47;3.47;;;;;;;5.69;100.00;99837.31;4937722;28;20697;-43
2024/01/01 10:44:32;;;;;;;5.65;3.03;;;;;;;5.68;100.00;99832.88;4939613;28;20221;-46
2024/01/01 10:46:59;;;;;;;7.60;3.05;;;;;;;5.63;100.00;99828.66;4942073;28;20193;-46
2024/01/01 10:49:30;;;;;;;5.68;2.67;;;;;;;5.61;100.00;99830.50;4941347;28;20306;-46
2024/01/01 10:52:19;;;;;;;7.47;2.78;;;;;;;5.53;100.00;99834.31;4935738;28;20190;-46
2024/01/01 10:54:59;;;;;;;6.28;2.65;;;;;;;5.51;100.00;99830.81;4936488;28;20587;-46
2024/01/01 10:57:49;;;;;;;5.43;2.42;;;;;;;5.41;100.00;99825.88;4936809;28;20250;-45
2024/01/01 11:00:27;;;;;;;4.65;2.30;;;;;;;5.36;100.00;99824.22;4939000;28;20197;-46
2024/01/01 11:02:54;;;;;;;4.07;2.47;;;;;;;5.35;100.00;99829.59;4922566;28;20275;-46
2024/01/01 11:05:33;;;;;;;3.80;2.22;;;;;;;5.26;100.00;99824.56;4936361;28;20202;-44
2024/01/01 11:08:00;;;;;;;5.07;2.13;;;;;;;5.33;100.00;99829.63;4940378;28;20182;-44
2024/01/01 11:10:40;;;;;;;4.38;1.90;;;;;;;5.16;100.00;99827.53;4937761;28;20246;-44
2024/01/01 11:13:10;;;;;;;8.23;3.00;;;;;;;5.15;100.00;99827.56;4955335;23;20230;-44
2024/01/01 11:15:48;;;;;;;6.05;2.33;;;;;;;5.18;100.00;99821.28;4940161;28;20172;-46
2024/01/01 11:18:18;;;;;;;3.72;1.85;;;;;;;5.16;100.00;99821.38;4938020;29;20207;-46